sensor_id;sensor_type;location;lat;lon;timestamp;pressure;altitude;pressure_sealevel;temperature
71960;BMP280;59832;51.146;14.024;2022-10-26T00:00:50;98693.72;;;7.34
71960;BMP280;59832;51.146;14.024;2022-10-26T00:03:17;98680.69;;;7.15
71960;BMP280;59832;51.146;14.024;2022-10-26T00:05:44;98682.78;;;7.13
71960;BMP280;59832;51.146;14.024;2022-10-26T00:08:11;98675.22;;;7.04
71960;BMP280;59832;51.146;14.024;2022-10-26T00:10:37;98682.50;;;7.06
71960;BMP280;59832;51.146;14.024;2022-10-26T00:13:06;98686.53;;;7.07
71960;BMP280;59832;51.146;14.024;2022-10-26T00:15:34;98691.59;;;6.98
71960;BMP280;59832;51.146;14.024;2022-10-26T00:18:00;98687.72;;;6.92
71960;BMP280;59832;51.146;14.024;2022-10-26T00:20:27;98701.84;;;7.02
71960;BMP280;59832;51.146;14.024;2022-10-26T00:22:53;98700.22;;;7.06
71960;BMP280;59832;51.146;14.024;2022-10-26T00:25:20;98701.56;;;7.03
71960;BMP280;59832;51.146;14.024;2022-10-26T00:27:46;98698.16;;;6.99
71960;BMP280;59832;51.146;14.024;2022-10-26T00:30:13;98695.63;;;6.99
71960;BMP280;59832;51.146;14.024;2022-10-26T00:32:40;98694.88;;;6.99
71960;BMP280;59832;51.146;14.024;2022-10-26T00:35:11;98696.22;;;6.88
71960;BMP280;59832;51.146;14.024;2022-10-26T00:37:53;98695.19;;;6.89
71960;BMP280;59832;51.146;14.024;2022-10-26T00:40:19;98681.91;;;6.92
71960;BMP280;59832;51.146;14.024;2022-10-26T00:42:46;98684.00;;;6.98
71960;BMP280;59832;51.146;14.024;2022-10-26T00:45:24;98691.00;;;6.93
71960;BMP280;59832;51.146;14.024;2022-10-26T00:47:55;98695.19;;;6.89
71960;BMP280;59832;51.146;14.024;2022-10-26T00:50:26;98692.50;;;6.85
71960;BMP280;59832;51.146;14.024;2022-10-26T00:52:54;98689.69;;;6.78
71960;BMP280;59832;51.146;14.024;2022-10-26T00:55:25;98696.06;;;6.84
71960;BMP280;59832;51.146;14.024;2022-10-26T00:57:52;98692.78;;;6.83
71960;BMP280;59832;51.146;14.024;2022-10-26T01:00:19;98687.47;;;6.76
71960;BMP280;59832;51.146;14.024;2022-10-26T01:02:47;98686.41;;;6.77
71960;BMP280;59832;51.146;14.024;2022-10-26T01:05:16;98694.00;;;6.69
71960;BMP280;59832;51.146;14.024;2022-10-26T01:07:44;98687.34;;;6.64
71960;BMP280;59832;51.146;14.024;2022-10-26T01:10:12;98686.72;;;6.67
71960;BMP280;59832;51.146;14.024;2022-10-26T01:12:39;98688.34;;;6.72
71960;BMP280;59832;51.146;14.024;2022-10-26T01:15:06;98683.59;;;6.70
71960;BMP280;59832;51.146;14.024;2022-10-26T01:17:37;98682.41;;;6.68
71960;BMP280;59832;51.146;14.024;2022-10-26T01:27:54;98683.16;;;6.77
71960;BMP280;59832;51.146;14.024;2022-10-26T01:38:07;98676.63;;;6.50
71960;BMP280;59832;51.146;14.024;2022-10-26T01:40:45;98678.84;;;6.52
71960;BMP280;59832;51.146;14.024;2022-10-26T01:43:14;98677.06;;;6.52
71960;BMP280;59832;51.146;14.024;2022-10-26T01:45:42;98672.00;;;6.52
71960;BMP280;59832;51.146;14.024;2022-10-26T01:48:12;98672.91;;;6.48
71960;BMP280;59832;51.146;14.024;2022-10-26T01:50:41;98674.38;;;6.49
71960;BMP280;59832;51.146;14.024;2022-10-26T01:53:15;98673.94;;;6.47
71960;BMP280;59832;51.146;14.024;2022-10-26T01:55:50;98673.66;;;6.48
71960;BMP280;59832;51.146;14.024;2022-10-26T01:58:52;98673.19;;;6.46
71960;BMP280;59832;51.146;14.024;2022-10-26T02:06:43;98677.53;;;6.37
71960;BMP280;59832;51.146;14.024;2022-10-26T02:12:42;98671.44;;;6.38
71960;BMP280;59832;51.146;14.024;2022-10-26T02:15:22;98665.91;;;6.27
71960;BMP280;59832;51.146;14.024;2022-10-26T02:18:07;98667.09;;;6.30
71960;BMP280;59832;51.146;14.024;2022-10-26T02:20:43;98660.25;;;6.30
71960;BMP280;59832;51.146;14.024;2022-10-26T02:23:13;98661.59;;;6.19
71960;BMP280;59832;51.146;14.024;2022-10-26T02:25:46;98661.41;;;6.16
71960;BMP280;59832;51.146;14.024;2022-10-26T02:28:18;98661.88;;;6.18
71960;BMP280;59832;51.146;14.024;2022-10-26T02:30:47;98662.91;;;6.17
71960;BMP280;59832;51.146;14.024;2022-10-26T02:33:15;98664.69;;;6.16
71960;BMP280;59832;51.146;14.024;2022-10-26T02:35:46;98666.94;;;6.18
71960;BMP280;59832;51.146;14.024;2022-10-26T02:38:16;98670.81;;;6.15
71960;BMP280;59832;51.146;14.024;2022-10-26T02:40:46;98664.69;;;6.16
71960;BMP280;59832;51.146;14.024;2022-10-26T02:43:14;98665.75;;;6.15
71960;BMP280;59832;51.146;14.024;2022-10-26T02:45:55;98672.72;;;6.18
71960;BMP280;59832;51.146;14.024;2022-10-26T02:48:22;98667.84;;;6.13
71960;BMP280;59832;51.146;14.024;2022-10-26T02:51:04;98667.53;;;6.15
71960;BMP280;59832;51.146;14.024;2022-10-26T02:53:49;98664.69;;;6.08
71960;BMP280;59832;51.146;14.024;2022-10-26T02:56:21;98663.94;;;6.07
71960;BMP280;59832;51.146;14.024;2022-10-26T02:58:53;98658.16;;;6.07
71960;BMP280;59832;51.146;14.024;2022-10-26T03:01:20;98652.81;;;5.99
71960;BMP280;59832;51.146;14.024;2022-10-26T03:03:47;98659.63;;;5.99
71960;BMP280;59832;51.146;14.024;2022-10-26T03:06:21;98658.31;;;6.02
71960;BMP280;59832;51.146;14.024;2022-10-26T03:08:48;98662.91;;;5.99
71960;BMP280;59832;51.146;14.024;2022-10-26T03:11:16;98653.09;;;6.07
71960;BMP280;59832;51.146;14.024;2022-10-26T03:13:42;98654.59;;;5.99
71960;BMP280;59832;51.146;14.024;2022-10-26T03:16:09;98653.38;;;5.96
71960;BMP280;59832;51.146;14.024;2022-10-26T03:18:36;98665.13;;;5.92
71960;BMP280;59832;51.146;14.024;2022-10-26T03:21:02;98658.75;;;5.95
71960;BMP280;59832;51.146;14.024;2022-10-26T03:23:28;98650.72;;;5.93
71960;BMP280;59832;51.146;14.024;2022-10-26T03:25:56;98652.19;;;5.85
71960;BMP280;59832;51.146;14.024;2022-10-26T03:28:23;98645.94;;;5.91
71960;BMP280;59832;51.146;14.024;2022-10-26T03:30:50;98652.34;;;6.06
71960;BMP280;59832;51.146;14.024;2022-10-26T03:33:16;98655.22;;;6.13
71960;BMP280;59832;51.146;14.024;2022-10-26T03:35:43;98648.94;;;6.02
71960;BMP280;59832;51.146;14.024;2022-10-26T03:38:10;98652.81;;;5.99
71960;BMP280;59832;51.146;14.024;2022-10-26T03:40:41;98653.84;;;5.98
71960;BMP280;59832;51.146;14.024;2022-10-26T03:43:07;98648.66;;;5.95
71960;BMP280;59832;51.146;14.024;2022-10-26T03:45:34;98651.28;;;5.90
71960;BMP280;59832;51.146;14.024;2022-10-26T03:48:00;98648.00;;;5.89
71960;BMP280;59832;51.146;14.024;2022-10-26T03:50:27;98649.38;;;5.95
71960;BMP280;59832;51.146;14.024;2022-10-26T03:52:53;98650.41;;;5.94
71960;BMP280;59832;51.146;14.024;2022-10-26T03:55:19;98653.22;;;5.93
71960;BMP280;59832;51.146;14.024;2022-10-26T03:57:46;98651.91;;;5.95
71960;BMP280;59832;51.146;14.024;2022-10-26T04:00:14;98651.16;;;5.95
71960;BMP280;59832;51.146;14.024;2022-10-26T04:02:45;98649.97;;;5.92
71960;BMP280;59832;51.146;14.024;2022-10-26T04:05:14;98650.84;;;5.96
71960;BMP280;59832;51.146;14.024;2022-10-26T04:07:42;98647.75;;;5.99
71960;BMP280;59832;51.146;14.024;2022-10-26T04:10:09;98658.91;;;5.98
71960;BMP280;59832;51.146;14.024;2022-10-26T04:12:36;98652.50;;;5.92
71960;BMP280;59832;51.146;14.024;2022-10-26T04:15:04;98663.63;;;5.91
71960;BMP280;59832;51.146;14.024;2022-10-26T04:17:32;98657.81;;;5.91
71960;BMP280;59832;51.146;14.024;2022-10-26T04:19:58;98662.41;;;5.89
71960;BMP280;59832;51.146;14.024;2022-10-26T04:22:25;98661.28;;;5.86
71960;BMP280;59832;51.146;14.024;2022-10-26T04:24:51;98666.59;;;5.85
71960;BMP280;59832;51.146;14.024;2022-10-26T04:27:18;98661.22;;;5.78
71960;BMP280;59832;51.146;14.024;2022-10-26T04:29:44;98663.16;;;5.81
71960;BMP280;59832;51.146;14.024;2022-10-26T04:32:10;98662.59;;;5.84
71960;BMP280;59832;51.146;14.024;2022-10-26T04:34:37;98663.06;;;5.86
71960;BMP280;59832;51.146;14.024;2022-10-26T04:37:03;98660.34;;;5.82
71960;BMP280;59832;51.146;14.024;2022-10-26T04:39:29;98663.63;;;5.83
71960;BMP280;59832;51.146;14.024;2022-10-26T04:41:56;98652.19;;;5.85
71960;BMP280;59832;51.146;14.024;2022-10-26T04:44:22;98657.97;;;5.77
71960;BMP280;59832;51.146;14.024;2022-10-26T04:46:49;98653.66;;;5.78
71960;BMP280;59832;51.146;14.024;2022-10-26T04:49:15;98649.91;;;5.75
71960;BMP280;59832;51.146;14.024;2022-10-26T04:51:41;98650.09;;;5.79
71960;BMP280;59832;51.146;14.024;2022-10-26T04:54:08;98649.78;;;5.80
71960;BMP280;59832;51.146;14.024;2022-10-26T04:56:34;98652.16;;;5.77
71960;BMP280;59832;51.146;14.024;2022-10-26T04:59:01;98646.38;;;5.76
71960;BMP280;59832;51.146;14.024;2022-10-26T05:01:29;98640.28;;;5.77
71960;BMP280;59832;51.146;14.024;2022-10-26T05:03:56;98642.81;;;5.77
71960;BMP280;59832;51.146;14.024;2022-10-26T05:06:23;98642.81;;;5.77
71960;BMP280;59832;51.146;14.024;2022-10-26T05:08:49;98635.78;;;5.74
71960;BMP280;59832;51.146;14.024;2022-10-26T05:11:15;98632.69;;;5.77
71960;BMP280;59832;51.146;14.024;2022-10-26T05:13:42;98640.56;;;5.76
71960;BMP280;59832;51.146;14.024;2022-10-26T05:16:08;98638.63;;;5.73
71960;BMP280;59832;51.146;14.024;2022-10-26T05:18:35;98633.13;;;5.71
71960;BMP280;59832;51.146;14.024;2022-10-26T05:21:01;98636.84;;;5.73
71960;BMP280;59832;51.146;14.024;2022-10-26T05:23:28;98644.72;;;5.72
71960;BMP280;59832;51.146;14.024;2022-10-26T05:25:54;98638.78;;;5.68
71960;BMP280;59832;51.146;14.024;2022-10-26T05:28:21;98638.78;;;5.68
71960;BMP280;59832;51.146;14.024;2022-10-26T05:30:47;98641.88;;;5.65
71960;BMP280;59832;51.146;14.024;2022-10-26T05:33:14;98641.75;;;5.70
71960;BMP280;59832;51.146;14.024;2022-10-26T05:35:40;98641.31;;;5.76
71960;BMP280;59832;51.146;14.024;2022-10-26T05:38:08;98647.84;;;5.77
71960;BMP280;59832;51.146;14.024;2022-10-26T05:40:35;98653.75;;;5.73
71960;BMP280;59832;51.146;14.024;2022-10-26T05:43:02;98653.34;;;5.71
71960;BMP280;59832;51.146;14.024;2022-10-26T05:45:29;98654.06;;;5.71
71960;BMP280;59832;51.146;14.024;2022-10-26T05:47:55;98651.56;;;5.71
71960;BMP280;59832;51.146;14.024;2022-10-26T05:50:27;98654.06;;;5.71
71960;BMP280;59832;51.146;14.024;2022-10-26T05:52:54;98644.72;;;5.72
71960;BMP280;59832;51.146;14.024;2022-10-26T05:55:21;98656.28;;;5.73
71960;BMP280;59832;51.146;14.024;2022-10-26T05:57:48;98653.75;;;5.73
71960;BMP280;59832;51.146;14.024;2022-10-26T06:05:20;98667.47;;;5.80
71960;BMP280;59832;51.146;14.024;2022-10-26T06:07:47;98665.84;;;5.84
71960;BMP280;59832;51.146;14.024;2022-10-26T06:10:15;98668.09;;;5.86
71960;BMP280;59832;51.146;14.024;2022-10-26T06:12:42;98676.53;;;5.90
71960;BMP280;59832;51.146;14.024;2022-10-26T06:15:13;98670.34;;;5.96
71960;BMP280;59832;51.146;14.024;2022-10-26T06:20:35;98657.72;;;5.96
71960;BMP280;59832;51.146;14.024;2022-10-26T06:23:17;98682.53;;;6.03
71960;BMP280;59832;51.146;14.024;2022-10-26T06:31:24;98680.59;;;6.17
71960;BMP280;59832;51.146;14.024;2022-10-26T06:33:57;98684.94;;;6.25
71960;BMP280;59832;51.146;14.024;2022-10-26T06:36:25;98688.97;;;6.34
71960;BMP280;59832;51.146;14.024;2022-10-26T06:39:00;98690.91;;;6.46
71960;BMP280;59832;51.146;14.024;2022-10-26T06:41:27;98690.28;;;6.58
71960;BMP280;59832;51.146;14.024;2022-10-26T06:43:53;98687.16;;;6.69
71960;BMP280;59832;51.146;14.024;2022-10-26T06:46:40;98695.78;;;6.85
71960;BMP280;59832;51.146;14.024;2022-10-26T06:51:42;98700.38;;;7.47
71960;BMP280;59832;51.146;14.024;2022-10-26T06:54:58;98700.28;;;7.94
71960;BMP280;59832;51.146;14.024;2022-10-26T06:57:33;98700.91;;;8.32
71960;BMP280;59832;51.146;14.024;2022-10-26T07:00:13;98707.00;;;8.52
71960;BMP280;59832;51.146;14.024;2022-10-26T07:02:42;98711.56;;;8.79
71960;BMP280;59832;51.146;14.024;2022-10-26T07:05:08;98708.53;;;8.98
71960;BMP280;59832;51.146;14.024;2022-10-26T07:07:40;98712.53;;;9.11
71960;BMP280;59832;51.146;14.024;2022-10-26T07:10:08;98716.69;;;9.16
71960;BMP280;59832;51.146;14.024;2022-10-26T07:12:36;98702.72;;;9.46
71960;BMP280;59832;51.146;14.024;2022-10-26T07:15:03;98713.41;;;9.76
71960;BMP280;59832;51.146;14.024;2022-10-26T07:17:30;98707.91;;;10.14
71960;BMP280;59832;51.146;14.024;2022-10-26T07:19:56;98706.75;;;10.39
71960;BMP280;59832;51.146;14.024;2022-10-26T07:22:23;98712.53;;;10.67
71960;BMP280;59832;51.146;14.024;2022-10-26T07:24:50;98712.16;;;11.12
71960;BMP280;59832;51.146;14.024;2022-10-26T07:27:17;98707.66;;;11.41
71960;BMP280;59832;51.146;14.024;2022-10-26T07:29:46;98701.94;;;11.82
71960;BMP280;59832;51.146;14.024;2022-10-26T07:32:13;98699.00;;;12.41
71960;BMP280;59832;51.146;14.024;2022-10-26T07:34:39;98712.94;;;12.24
71960;BMP280;59832;51.146;14.024;2022-10-26T07:37:05;98705.94;;;12.63
71960;BMP280;59832;51.146;14.024;2022-10-26T07:39:32;98712.41;;;13.33
71960;BMP280;59832;51.146;14.024;2022-10-26T07:41:58;98714.78;;;13.82
71960;BMP280;59832;51.146;14.024;2022-10-26T07:44:25;98709.22;;;14.06
71960;BMP280;59832;51.146;14.024;2022-10-26T07:46:51;98712.31;;;14.69
71960;BMP280;59832;51.146;14.024;2022-10-26T07:49:18;98715.00;;;14.87
71960;BMP280;59832;51.146;14.024;2022-10-26T07:51:45;98711.47;;;15.09
71960;BMP280;59832;51.146;14.024;2022-10-26T07:54:11;98713.06;;;15.35
71960;BMP280;59832;51.146;14.024;2022-10-26T07:56:38;98711.72;;;15.66
71960;BMP280;59832;51.146;14.024;2022-10-26T07:59:04;98711.75;;;15.94
71960;BMP280;59832;51.146;14.024;2022-10-26T08:01:30;98710.69;;;16.27
71960;BMP280;59832;51.146;14.024;2022-10-26T08:03:57;98709.06;;;15.48
71960;BMP280;59832;51.146;14.024;2022-10-26T08:06:23;98705.47;;;15.60
71960;BMP280;59832;51.146;14.024;2022-10-26T08:08:50;98707.72;;;16.00
71960;BMP280;59832;51.146;14.024;2022-10-26T08:11:17;98708.50;;;16.29
71960;BMP280;59832;51.146;14.024;2022-10-26T08:13:44;98715.06;;;15.95
71960;BMP280;59832;51.146;14.024;2022-10-26T08:16:10;98709.94;;;16.33
71960;BMP280;59832;51.146;14.024;2022-10-26T08:18:37;98709.56;;;16.31
71960;BMP280;59832;51.146;14.024;2022-10-26T08:21:05;98712.50;;;16.26
71960;BMP280;59832;51.146;14.024;2022-10-26T08:23:37;98711.75;;;16.68
71960;BMP280;59832;51.146;14.024;2022-10-26T08:26:04;98715.09;;;16.51
71960;BMP280;59832;51.146;14.024;2022-10-26T08:28:31;98709.50;;;15.64
71960;BMP280;59832;51.146;14.024;2022-10-26T08:30:57;98710.41;;;15.10
71960;BMP280;59832;51.146;14.024;2022-10-26T08:33:24;98703.34;;;14.93
71960;BMP280;59832;51.146;14.024;2022-10-26T08:35:55;98706.53;;;14.79
71960;BMP280;59832;51.146;14.024;2022-10-26T08:38:21;98708.13;;;14.98
71960;BMP280;59832;51.146;14.024;2022-10-26T08:40:48;98709.56;;;14.92
71960;BMP280;59832;51.146;14.024;2022-10-26T08:43:25;98708.97;;;15.16
71960;BMP280;59832;51.146;14.024;2022-10-26T08:46:38;98711.66;;;15.52
71960;BMP280;59832;51.146;14.024;2022-10-26T08:48:41;98717.13;;;14.78
71960;BMP280;59832;51.146;14.024;2022-10-26T08:51:22;98715.66;;;14.73
71960;BMP280;59832;51.146;14.024;2022-10-26T08:53:59;98713.28;;;14.10
71960;BMP280;59832;51.146;14.024;2022-10-26T08:56:34;98716.00;;;13.91
71960;BMP280;59832;51.146;14.024;2022-10-26T08:59:34;98724.84;;;13.34
71960;BMP280;59832;51.146;14.024;2022-10-26T09:02:10;98723.22;;;12.96
71960;BMP280;59832;51.146;14.024;2022-10-26T09:04:37;98729.53;;;13.02
71960;BMP280;59832;51.146;14.024;2022-10-26T09:07:45;98734.84;;;13.43
71960;BMP280;59832;51.146;14.024;2022-10-26T09:13:17;98735.53;;;14.43
71960;BMP280;59832;51.146;14.024;2022-10-26T09:23:57;98730.75;;;15.65
71960;BMP280;59832;51.146;14.024;2022-10-26T09:26:31;98731.59;;;15.94
71960;BMP280;59832;51.146;14.024;2022-10-26T09:29:04;98727.59;;;16.14
71960;BMP280;59832;51.146;14.024;2022-10-26T09:31:39;98723.91;;;16.18
71960;BMP280;59832;51.146;14.024;2022-10-26T09:34:13;98722.81;;;16.19
71960;BMP280;59832;51.146;14.024;2022-10-26T09:36:41;98724.25;;;16.24
71960;BMP280;59832;51.146;14.024;2022-10-26T09:42:15;98725.34;;;16.02
71960;BMP280;59832;51.146;14.024;2022-10-26T09:44:53;98726.41;;;15.83
71960;BMP280;59832;51.146;14.024;2022-10-26T09:47:30;98733.81;;;16.34
71960;BMP280;59832;51.146;14.024;2022-10-26T09:50:02;98730.47;;;16.69
71960;BMP280;59832;51.146;14.024;2022-10-26T09:52:30;98733.06;;;16.37
71960;BMP280;59832;51.146;14.024;2022-10-26T09:54:57;98738.22;;;16.48
71960;BMP280;59832;51.146;14.024;2022-10-26T09:57:23;98743.31;;;16.76
71960;BMP280;59832;51.146;14.024;2022-10-26T09:59:51;98746.63;;;16.76
71960;BMP280;59832;51.146;14.024;2022-10-26T10:02:40;98743.69;;;16.85
71960;BMP280;59832;51.146;14.024;2022-10-26T10:10:52;98743.34;;;16.51
71960;BMP280;59832;51.146;14.024;2022-10-26T10:13:20;98746.91;;;17.14
71960;BMP280;59832;51.146;14.024;2022-10-26T10:16:20;98727.50;;;16.99
71960;BMP280;59832;51.146;14.024;2022-10-26T10:18:55;98742.19;;;16.95
71960;BMP280;59832;51.146;14.024;2022-10-26T10:21:47;98736.66;;;17.07
71960;BMP280;59832;51.146;14.024;2022-10-26T10:24:21;98740.25;;;17.30
71960;BMP280;59832;51.146;14.024;2022-10-26T10:29:47;98738.44;;;17.20
71960;BMP280;59832;51.146;14.024;2022-10-26T10:32:20;98729.69;;;17.07
71960;BMP280;59832;51.146;14.024;2022-10-26T10:34:53;98723.38;;;17.19
71960;BMP280;59832;51.146;14.024;2022-10-26T10:37:36;98722.66;;;17.18
71960;BMP280;59832;51.146;14.024;2022-10-26T10:40:22;98725.09;;;17.47
71960;BMP280;59832;51.146;14.024;2022-10-26T10:42:52;98721.03;;;17.49
71960;BMP280;59832;51.146;14.024;2022-10-26T10:45:22;98726.75;;;17.81
71960;BMP280;59832;51.146;14.024;2022-10-26T10:48:13;98726.03;;;17.81
71960;BMP280;59832;51.146;14.024;2022-10-26T10:50:51;98724.59;;;17.69
71960;BMP280;59832;51.146;14.024;2022-10-26T10:56:18;98708.72;;;17.78
71960;BMP280;59832;51.146;14.024;2022-10-26T10:58:58;98720.81;;;17.88
71960;BMP280;59832;51.146;14.024;2022-10-26T11:01:39;98708.97;;;18.42
71960;BMP280;59832;51.146;14.024;2022-10-26T11:07:03;98719.50;;;18.17
71960;BMP280;59832;51.146;14.024;2022-10-26T11:09:32;98705.84;;;18.24
71960;BMP280;59832;51.146;14.024;2022-10-26T11:12:08;98706.69;;;18.51
71960;BMP280;59832;51.146;14.024;2022-10-26T11:14:42;98711.03;;;18.91
71960;BMP280;59832;51.146;14.024;2022-10-26T11:17:20;98708.88;;;19.17
71960;BMP280;59832;51.146;14.024;2022-10-26T11:19:52;98697.81;;;19.20
71960;BMP280;59832;51.146;14.024;2022-10-26T11:22:41;98701.97;;;19.10
71960;BMP280;59832;51.146;14.024;2022-10-26T11:25:21;98704.38;;;18.94
71960;BMP280;59832;51.146;14.024;2022-10-26T11:28:13;98712.25;;;18.83
71960;BMP280;59832;51.146;14.024;2022-10-26T11:30:46;98708.00;;;19.00
71960;BMP280;59832;51.146;14.024;2022-10-26T11:33:25;98696.94;;;18.69
71960;BMP280;59832;51.146;14.024;2022-10-26T11:36:02;98703.84;;;18.38
71960;BMP280;59832;51.146;14.024;2022-10-26T11:38:52;98710.91;;;17.86
71960;BMP280;59832;51.146;14.024;2022-10-26T11:44:27;98706.66;;;17.62
71960;BMP280;59832;51.146;14.024;2022-10-26T11:47:02;98701.28;;;17.32
71960;BMP280;59832;51.146;14.024;2022-10-26T11:49:46;98718.22;;;17.26
71960;BMP280;59832;51.146;14.024;2022-10-26T11:52:20;98704.56;;;17.39
71960;BMP280;59832;51.146;14.024;2022-10-26T11:55:14;98709.69;;;17.43
71960;BMP280;59832;51.146;14.024;2022-10-26T11:57:41;98703.94;;;17.14
71960;BMP280;59832;51.146;14.024;2022-10-26T12:00:18;98708.31;;;17.21
71960;BMP280;59832;51.146;14.024;2022-10-26T12:03:40;98710.19;;;17.17
71960;BMP280;59832;51.146;14.024;2022-10-26T12:06:12;98711.63;;;17.14
71960;BMP280;59832;51.146;14.024;2022-10-26T12:08:52;98714.53;;;17.27
71960;BMP280;59832;51.146;14.024;2022-10-26T12:11:47;98716.00;;;17.28
71960;BMP280;59832;51.146;14.024;2022-10-26T12:14:35;98712.03;;;17.13
71960;BMP280;59832;51.146;14.024;2022-10-26T12:17:33;98712.03;;;17.06
71960;BMP280;59832;51.146;14.024;2022-10-26T12:22:59;98722.38;;;16.92
71960;BMP280;59832;51.146;14.024;2022-10-26T12:25:25;98724.97;;;16.92
71960;BMP280;59832;51.146;14.024;2022-10-26T12:27:54;98716.16;;;16.82
71960;BMP280;59832;51.146;14.024;2022-10-26T12:32:50;98723.53;;;16.62
71960;BMP280;59832;51.146;14.024;2022-10-26T12:35:34;98723.91;;;16.54
71960;BMP280;59832;51.146;14.024;2022-10-26T12:43:33;98723.53;;;16.45
71960;BMP280;59832;51.146;14.024;2022-10-26T12:57:26;98715.44;;;16.71
71960;BMP280;59832;51.146;14.024;2022-10-26T12:59:59;98727.94;;;16.72
71960;BMP280;59832;51.146;14.024;2022-10-26T13:05:06;98711.03;;;16.64
71960;BMP280;59832;51.146;14.024;2022-10-26T13:07:39;98706.66;;;16.61
71960;BMP280;59832;51.146;14.024;2022-10-26T13:12:56;98703.28;;;16.75
71960;BMP280;59832;51.146;14.024;2022-10-26T13:15:36;98702.56;;;16.74
71960;BMP280;59832;51.146;14.024;2022-10-26T13:20:33;98710.25;;;16.78
71960;BMP280;59832;51.146;14.024;2022-10-26T13:23:15;98711.72;;;16.86
71960;BMP280;59832;51.146;14.024;2022-10-26T13:26:00;98714.34;;;16.54
71960;BMP280;59832;51.146;14.024;2022-10-26T13:31:17;98719.13;;;16.56
71960;BMP280;59832;51.146;14.024;2022-10-26T13:34:03;98709.19;;;16.58
71960;BMP280;59832;51.146;14.024;2022-10-26T13:36:43;98718.00;;;16.60
71960;BMP280;59832;51.146;14.024;2022-10-26T13:39:19;98719.13;;;16.56
71960;BMP280;59832;51.146;14.024;2022-10-26T13:41:49;98719.84;;;16.63
71960;BMP280;59832;51.146;14.024;2022-10-26T13:47:54;98726.81;;;16.66
71960;BMP280;59832;51.146;14.024;2022-10-26T13:50:27;98722.06;;;16.51
71960;BMP280;59832;51.146;14.024;2022-10-26T13:53:00;98725.03;;;16.46
71960;BMP280;59832;51.146;14.024;2022-10-26T13:55:32;98721.31;;;16.54
71960;BMP280;59832;51.146;14.024;2022-10-26T13:58:13;98718.03;;;16.50
71960;BMP280;59832;51.146;14.024;2022-10-26T14:01:15;98720.22;;;16.44
71960;BMP280;59832;51.146;14.024;2022-10-26T14:03:43;98722.78;;;16.33
71960;BMP280;59832;51.146;14.024;2022-10-26T14:06:32;98720.63;;;16.36
71960;BMP280;59832;51.146;14.024;2022-10-26T14:09:02;98725.38;;;16.30
71960;BMP280;59832;51.146;14.024;2022-10-26T14:11:53;98727.22;;;16.22
71960;BMP280;59832;51.146;14.024;2022-10-26T14:14:33;98719.84;;;16.17
71960;BMP280;59832;51.146;14.024;2022-10-26T14:17:01;98729.38;;;16.17
71960;BMP280;59832;51.146;14.024;2022-10-26T14:19:35;98728.28;;;16.11
71960;BMP280;59832;51.146;14.024;2022-10-26T14:22:03;98737.47;;;16.12
71960;BMP280;59832;51.146;14.024;2022-10-26T14:24:32;98730.16;;;16.14
71960;BMP280;59832;51.146;14.024;2022-10-26T14:27:18;98736.72;;;16.32
71960;BMP280;59832;51.146;14.024;2022-10-26T14:29:45;98738.94;;;16.13
71960;BMP280;59832;51.146;14.024;2022-10-26T14:32:31;98734.50;;;16.06
71960;BMP280;59832;51.146;14.024;2022-10-26T14:34:59;98729.78;;;16.15
71960;BMP280;59832;51.146;14.024;2022-10-26T14:37:35;98731.97;;;16.10
71960;BMP280;59832;51.146;14.024;2022-10-26T14:40:03;98733.03;;;15.95
71960;BMP280;59832;51.146;14.024;2022-10-26T14:42:32;98735.59;;;15.91
71960;BMP280;59832;51.146;14.024;2022-10-26T14:45:00;98736.69;;;15.83
71960;BMP280;59832;51.146;14.024;2022-10-26T14:47:34;98735.56;;;15.80
71960;BMP280;59832;51.146;14.024;2022-10-26T14:50:02;98734.84;;;15.76
71960;BMP280;59832;51.146;14.024;2022-10-26T14:52:31;98742.84;;;15.68
71960;BMP280;59832;51.146;14.024;2022-10-26T14:55:03;98749.81;;;15.60
71960;BMP280;59832;51.146;14.024;2022-10-26T14:57:38;98745.00;;;15.45
71960;BMP280;59832;51.146;14.024;2022-10-26T15:00:22;98735.44;;;15.45
71960;BMP280;59832;51.146;14.024;2022-10-26T15:02:51;98749.69;;;15.32
71960;BMP280;59832;51.146;14.024;2022-10-26T15:05:24;98756.53;;;15.14
71960;BMP280;59832;51.146;14.024;2022-10-26T15:07:57;98758.81;;;15.22
71960;BMP280;59832;51.146;14.024;2022-10-26T15:13:27;98759.81;;;15.07
71960;BMP280;59832;51.146;14.024;2022-10-26T15:15:56;98765.66;;;15.08
71960;BMP280;59832;51.146;14.024;2022-10-26T15:18:25;98768.22;;;15.08
71960;BMP280;59832;51.146;14.024;2022-10-26T15:20:53;98771.13;;;15.03
71960;BMP280;59832;51.146;14.024;2022-10-26T15:23:21;98774.31;;;14.89
71960;BMP280;59832;51.146;14.024;2022-10-26T15:25:59;98776.88;;;14.89
71960;BMP280;59832;51.146;14.024;2022-10-26T15:28:45;98776.44;;;14.76
71960;BMP280;59832;51.146;14.024;2022-10-26T15:33:43;98781.38;;;14.55
71960;BMP280;59832;51.146;14.024;2022-10-26T15:36:29;98765.63;;;14.53
71960;BMP280;59832;51.146;14.024;2022-10-26T15:38:57;98765.66;;;14.57
71960;BMP280;59832;51.146;14.024;2022-10-26T15:41:33;98768.91;;;14.54
71960;BMP280;59832;51.146;14.024;2022-10-26T15:44:11;98773.19;;;14.43
71960;BMP280;59832;51.146;14.024;2022-10-26T15:46:39;98772.13;;;14.40
71960;BMP280;59832;51.146;14.024;2022-10-26T15:49:07;98780.63;;;14.18
71960;BMP280;59832;51.146;14.024;2022-10-26T15:51:39;98782.81;;;14.16
71960;BMP280;59832;51.146;14.024;2022-10-26T15:54:05;98797.34;;;14.08
71960;BMP280;59832;51.146;14.024;2022-10-26T15:56:32;98792.66;;;14.10
71960;BMP280;59832;51.146;14.024;2022-10-26T15:58:58;98797.78;;;14.10
71960;BMP280;59832;51.146;14.024;2022-10-26T16:01:27;98794.13;;;14.11
71960;BMP280;59832;51.146;14.024;2022-10-26T16:03:54;98793.31;;;14.04
71960;BMP280;59832;51.146;14.024;2022-10-26T16:06:28;98797.94;;;13.95
71960;BMP280;59832;51.146;14.024;2022-10-26T16:08:59;98794.53;;;13.84
71960;BMP280;59832;51.146;14.024;2022-10-26T16:11:27;98794.84;;;13.82
71960;BMP280;59832;51.146;14.024;2022-10-26T16:13:53;98803.63;;;13.81
71960;BMP280;59832;51.146;14.024;2022-10-26T16:16:24;98798.81;;;13.76
71960;BMP280;59832;51.146;14.024;2022-10-26T16:18:52;98798.28;;;13.90
71960;BMP280;59832;51.146;14.024;2022-10-26T16:21:39;98807.28;;;13.80